sensor_id;sensor_type;location;lat;lon;timestamp;pressure;altitude;pressure_sealevel;temperature;humidity
14041;BME280;7095;51.388;6.196;2023-01-28T00:01:42;55499.69;;;-145.32;100.00
14041;BME280;7095;51.388;6.196;2023-01-28T00:04:10;55519.56;;;-145.32;100.00
14041;BME280;7095;51.388;6.196;2023-01-28T00:06:39;55561.34;;;-145.32;100.00
14041;BME280;7095;51.388;6.196;2023-01-28T00:09:07;55595.16;;;-145.32;100.00
14041;BME280;7095;51.388;6.196;2023-01-28T00:11:37;55583.22;;;-145.32;100.00
14041;BME280;7095;51.388;6.196;2023-01-28T00:14:05;55682.69;;;-145.32;100.00
14041;BME280;7095;51.388;6.196;2023-01-28T00:16:34;55650.88;;;-145.32;100.00
14041;BME280;7095;51.388;6.196;2023-01-28T00:19:03;55607.09;;;-145.32;100.00
14041;BME280;7095;51.388;6.196;2023-01-28T00:21:31;55549.41;;;-145.32;100.00
14041;BME280;7095;51.388;6.196;2023-01-28T00:23:59;55499.69;;;-145.32;100.00
14041;BME280;7095;51.388;6.196;2023-01-28T00:26:28;55440.00;;;-145.32;100.00
14041;BME280;7095;51.388;6.196;2023-01-28T00:28:57;55493.72;;;-145.32;100.00
14041;BME280;7095;51.388;6.196;2023-01-28T00:31:26;55352.47;;;-145.32;100.00
14041;BME280;7095;51.388;6.196;2023-01-28T00:33:55;55360.44;;;-145.32;100.00
14041;BME280;7095;51.388;6.196;2023-01-28T00:36:25;55332.59;;;-145.32;100.00
14041;BME280;7095;51.388;6.196;2023-01-28T00:38:55;55308.72;;;-145.32;100.00
14041;BME280;7095;51.388;6.196;2023-01-28T00:41:28;55280.88;;;-145.32;100.00
14041;BME280;7095;51.388;6.196;2023-01-28T00:43:58;55288.84;;;-145.32;100.00
14041;BME280;7095;51.388;6.196;2023-01-28T00:46:28;55247.06;;;-145.32;100.00
14041;BME280;7095;51.388;6.196;2023-01-28T00:48:56;55203.31;;;-145.32;100.00
14041;BME280;7095;51.388;6.196;2023-01-28T00:51:25;55187.38;;;-145.32;100.00
14041;BME280;7095;51.388;6.196;2023-01-28T00:53:54;55203.31;;;-145.32;100.00
14041;BME280;7095;51.388;6.196;2023-01-28T00:56:22;55181.41;;;-145.32;100.00
14041;BME280;7095;51.388;6.196;2023-01-28T00:58:50;55177.44;;;-145.32;100.00
14041;BME280;7095;51.388;6.196;2023-01-28T01:01:22;55097.88;;;-145.32;100.00
14041;BME280;7095;51.388;6.196;2023-01-28T01:03:52;55066.06;;;-145.32;100.00
14041;BME280;7095;51.388;6.196;2023-01-28T01:06:24;55002.41;;;-145.32;100.00
14041;BME280;7095;51.388;6.196;2023-01-28T01:08:52;54942.75;;;-145.32;100.00
14041;BME280;7095;51.388;6.196;2023-01-28T01:11:20;54992.47;;;-145.32;100.00
14041;BME280;7095;51.388;6.196;2023-01-28T01:13:50;54934.78;;;-145.32;100.00
14041;BME280;7095;51.388;6.196;2023-01-28T01:16:24;54914.91;;;-145.32;100.00
14041;BME280;7095;51.388;6.196;2023-01-28T01:18:53;54863.19;;;-145.32;100.00
14041;BME280;7095;51.388;6.196;2023-01-28T01:21:24;54916.88;;;-145.32;100.00
14041;BME280;7095;51.388;6.196;2023-01-28T01:23:54;54883.06;;;-145.32;100.00
14041;BME280;7095;51.388;6.196;2023-01-28T01:26:23;54877.09;;;-145.32;100.00
14041;BME280;7095;51.388;6.196;2023-01-28T01:28:53;54906.94;;;-145.32;100.00
14041;BME280;7095;51.388;6.196;2023-01-28T01:31:23;54825.41;;;-145.32;100.00
14041;BME280;7095;51.388;6.196;2023-01-28T01:33:52;54895.00;;;-145.32;100.00
14041;BME280;7095;51.388;6.196;2023-01-28T01:36:20;54843.28;;;-145.32;100.00
14041;BME280;7095;51.388;6.196;2023-01-28T01:38:52;54823.41;;;-145.32;100.00
14041;BME280;7095;51.388;6.196;2023-01-28T01:41:24;54879.09;;;-145.32;100.00
14041;BME280;7095;51.388;6.196;2023-01-28T01:43:55;54855.22;;;-145.32;100.00
14041;BME280;7095;51.388;6.196;2023-01-28T01:46:31;54906.94;;;-145.32;100.00
14041;BME280;7095;51.388;6.196;2023-01-28T01:49:10;54855.22;;;-145.32;100.00
14041;BME280;7095;51.388;6.196;2023-01-28T01:51:42;54839.31;;;-145.32;100.00
14041;BME280;7095;51.388;6.196;2023-01-28T01:54:12;54805.50;;;-145.32;100.00
14041;BME280;7095;51.388;6.196;2023-01-28T01:56:42;54843.28;;;-145.32;100.00
14041;BME280;7095;51.388;6.196;2023-01-28T01:59:14;54815.47;;;-145.32;100.00
14041;BME280;7095;51.388;6.196;2023-01-28T02:01:44;54900.97;;;-145.32;100.00
14041;BME280;7095;51.388;6.196;2023-01-28T02:04:17;54813.47;;;-145.32;100.00
14041;BME280;7095;51.388;6.196;2023-01-28T02:06:47;54801.53;;;-145.32;100.00
14041;BME280;7095;51.388;6.196;2023-01-28T02:09:22;54795.56;;;-145.32;100.00
14041;BME280;7095;51.388;6.196;2023-01-28T02:11:52;54785.63;;;-145.32;100.00
14041;BME280;7095;51.388;6.196;2023-01-28T02:14:23;54811.47;;;-145.32;100.00
14041;BME280;7095;51.388;6.196;2023-01-28T02:17:00;54783.63;;;-145.32;100.00
14041;BME280;7095;51.388;6.196;2023-01-28T02:19:33;54708.06;;;-145.32;100.00
14041;BME280;7095;51.388;6.196;2023-01-28T02:25:23;54704.09;;;-145.32;100.00
14041;BME280;7095;51.388;6.196;2023-01-28T02:28:08;54692.16;;;-145.32;100.00
14041;BME280;7095;51.388;6.196;2023-01-28T02:30:41;54733.91;;;-145.32;100.00
14041;BME280;7095;51.388;6.196;2023-01-28T02:33:15;54751.81;;;-145.32;100.00
14041;BME280;7095;51.388;6.196;2023-01-28T02:35:47;54680.22;;;-145.32;100.00
14041;BME280;7095;51.388;6.196;2023-01-28T02:38:20;54672.25;;;-145.32;100.00
14041;BME280;7095;51.388;6.196;2023-01-28T02:40:54;54678.22;;;-145.32;100.00
14041;BME280;7095;51.388;6.196;2023-01-28T02:43:36;54652.38;;;-145.32;100.00
14041;BME280;7095;51.388;6.196;2023-01-28T02:46:14;54696.13;;;-145.32;100.00
14041;BME280;7095;51.388;6.196;2023-01-28T02:49:04;54664.31;;;-145.32;100.00
14041;BME280;7095;51.388;6.196;2023-01-28T02:51:42;54636.47;;;-145.32;100.00
14041;BME280;7095;51.388;6.196;2023-01-28T02:54:21;54636.47;;;-145.32;100.00
14041;BME280;7095;51.388;6.196;2023-01-28T02:57:01;54664.31;;;-145.32;100.00
14041;BME280;7095;51.388;6.196;2023-01-28T02:59:41;54640.44;;;-145.32;100.00
14041;BME280;7095;51.388;6.196;2023-01-28T03:02:19;54650.38;;;-145.32;100.00
14041;BME280;7095;51.388;6.196;2023-01-28T03:04:53;54680.22;;;-145.32;100.00
14041;BME280;7095;51.388;6.196;2023-01-28T03:07:26;54694.13;;;-145.32;100.00
14041;BME280;7095;51.388;6.196;2023-01-28T03:10:00;54680.22;;;-145.32;100.00
14041;BME280;7095;51.388;6.196;2023-01-28T03:12:31;54678.22;;;-145.32;100.00
14041;BME280;7095;51.388;6.196;2023-01-28T03:15:21;54684.19;;;-145.32;100.00
14041;BME280;7095;51.388;6.196;2023-01-28T03:18:12;54716.00;;;-145.32;100.00
14041;BME280;7095;51.388;6.196;2023-01-28T03:21:04;54684.19;;;-145.32;100.00
14041;BME280;7095;51.388;6.196;2023-01-28T03:23:58;54672.25;;;-145.32;100.00
14041;BME280;7095;51.388;6.196;2023-01-28T03:26:49;54656.34;;;-145.32;100.00
14041;BME280;7095;51.388;6.196;2023-01-28T03:29:41;54652.38;;;-145.32;100.00
14041;BME280;7095;51.388;6.196;2023-01-28T03:32:32;54672.25;;;-145.32;100.00
14041;BME280;7095;51.388;6.196;2023-01-28T03:35:21;54672.25;;;-145.32;100.00
14041;BME280;7095;51.388;6.196;2023-01-28T03:38:10;54664.31;;;-145.32;100.00
14041;BME280;7095;51.388;6.196;2023-01-28T03:40:51;54670.28;;;-145.32;100.00
14041;BME280;7095;51.388;6.196;2023-01-28T03:43:20;54678.22;;;-145.32;100.00
14041;BME280;7095;51.388;6.196;2023-01-28T03:45:49;54696.13;;;-145.32;100.00
14041;BME280;7095;51.388;6.196;2023-01-28T03:48:22;54672.25;;;-145.32;100.00
14041;BME280;7095;51.388;6.196;2023-01-28T03:50:51;54648.41;;;-145.32;100.00
14041;BME280;7095;51.388;6.196;2023-01-28T03:53:21;54652.38;;;-145.32;100.00
14041;BME280;7095;51.388;6.196;2023-01-28T03:55:52;54688.16;;;-145.32;100.00
14041;BME280;7095;51.388;6.196;2023-01-28T03:58:23;54698.13;;;-145.32;100.00
14041;BME280;7095;51.388;6.196;2023-01-28T04:00:53;54674.25;;;-145.32;100.00
14041;BME280;7095;51.388;6.196;2023-01-28T04:03:23;54668.28;;;-145.32;100.00
14041;BME280;7095;51.388;6.196;2023-01-28T04:06:02;54696.13;;;-145.32;100.00
14041;BME280;7095;51.388;6.196;2023-01-28T04:08:51;54686.19;;;-145.32;100.00
14041;BME280;7095;51.388;6.196;2023-01-28T04:11:30;54702.09;;;-145.32;100.00
14041;BME280;7095;51.388;6.196;2023-01-28T04:14:01;54700.09;;;-145.32;100.00
14041;BME280;7095;51.388;6.196;2023-01-28T04:16:47;54670.28;;;-145.32;100.00
14041;BME280;7095;51.388;6.196;2023-01-28T04:19:18;54664.31;;;-145.32;100.00
14041;BME280;7095;51.388;6.196;2023-01-28T04:21:46;54694.13;;;-145.32;100.00
14041;BME280;7095;51.388;6.196;2023-01-28T04:24:15;54612.59;;;-145.32;100.00
14041;BME280;7095;51.388;6.196;2023-01-28T04:26:44;54578.78;;;-145.32;100.00
14041;BME280;7095;51.388;6.196;2023-01-28T04:29:14;54628.50;;;-145.32;100.00
14041;BME280;7095;51.388;6.196;2023-01-28T04:31:43;54578.78;;;-145.32;100.00
14041;BME280;7095;51.388;6.196;2023-01-28T04:34:31;54580.78;;;-145.32;100.00
14041;BME280;7095;51.388;6.196;2023-01-28T04:37:12;54584.75;;;-145.32;100.00
14041;BME280;7095;51.388;6.196;2023-01-28T04:39:59;54558.91;;;-145.32;100.00
14041;BME280;7095;51.388;6.196;2023-01-28T04:42:42;54560.91;;;-145.32;100.00
14041;BME280;7095;51.388;6.196;2023-01-28T04:45:33;54560.91;;;-145.32;100.00
14041;BME280;7095;51.388;6.196;2023-01-28T04:48:12;54513.16;;;-145.32;100.00
14041;BME280;7095;51.388;6.196;2023-01-28T04:51:00;54529.06;;;-145.32;100.00
14041;BME280;7095;51.388;6.196;2023-01-28T04:53:41;54568.84;;;-145.32;100.00
14041;BME280;7095;51.388;6.196;2023-01-28T04:56:35;54560.91;;;-145.32;100.00
14041;BME280;7095;51.388;6.196;2023-01-28T04:59:04;54592.72;;;-145.32;100.00
14041;BME280;7095;51.388;6.196;2023-01-28T05:01:35;54541.00;;;-145.32;100.00
14041;BME280;7095;51.388;6.196;2023-01-28T05:04:04;54588.75;;;-145.32;100.00
14041;BME280;7095;51.388;6.196;2023-01-28T05:06:38;54584.75;;;-145.32;100.00
14041;BME280;7095;51.388;6.196;2023-01-28T05:09:10;54572.81;;;-145.32;100.00
14041;BME280;7095;51.388;6.196;2023-01-28T05:11:42;54566.84;;;-145.32;100.00
14041;BME280;7095;51.388;6.196;2023-01-28T05:14:12;54529.06;;;-145.32;100.00
14041;BME280;7095;51.388;6.196;2023-01-28T05:16:44;54570.84;;;-145.32;100.00
14041;BME280;7095;51.388;6.196;2023-01-28T05:19:14;54544.97;;;-145.32;100.00
14041;BME280;7095;51.388;6.196;2023-01-28T05:21:46;54554.94;;;-145.32;100.00
14041;BME280;7095;51.388;6.196;2023-01-28T05:24:38;54509.19;;;-145.32;100.00
14041;BME280;7095;51.388;6.196;2023-01-28T05:27:07;54499.25;;;-145.32;100.00
14041;BME280;7095;51.388;6.196;2023-01-28T05:29:36;54521.13;;;-145.32;100.00
14041;BME280;7095;51.388;6.196;2023-01-28T05:32:04;54493.28;;;-145.32;100.00
14041;BME280;7095;51.388;6.196;2023-01-28T05:34:33;54521.13;;;-145.32;100.00
14041;BME280;7095;51.388;6.196;2023-01-28T05:37:09;54481.34;;;-145.32;100.00
14041;BME280;7095;51.388;6.196;2023-01-28T05:39:38;54527.09;;;-145.32;100.00
14041;BME280;7095;51.388;6.196;2023-01-28T05:42:07;54509.19;;;-145.32;100.00
14041;BME280;7095;51.388;6.196;2023-01-28T05:44:41;54515.16;;;-145.32;100.00
14041;BME280;7095;51.388;6.196;2023-01-28T05:47:20;54525.09;;;-145.32;100.00
14041;BME280;7095;51.388;6.196;2023-01-28T05:50:13;54457.47;;;-145.32;100.00
14041;BME280;7095;51.388;6.196;2023-01-28T05:52:45;54487.31;;;-145.32;100.00
14041;BME280;7095;51.388;6.196;2023-01-28T05:55:23;54473.41;;;-145.32;100.00
14041;BME280;7095;51.388;6.196;2023-01-28T05:57:53;54451.53;;;-145.32;100.00
14041;BME280;7095;51.388;6.196;2023-01-28T06:00:23;54465.44;;;-145.32;100.00
14041;BME280;7095;51.388;6.196;2023-01-28T06:02:52;54491.28;;;-145.32;100.00
14041;BME280;7095;51.388;6.196;2023-01-28T06:05:21;54437.59;;;-145.32;100.00
14041;BME280;7095;51.388;6.196;2023-01-28T06:07:51;54451.53;;;-145.32;100.00
14041;BME280;7095;51.388;6.196;2023-01-28T06:10:19;54485.31;;;-145.32;100.00
14041;BME280;7095;51.388;6.196;2023-01-28T06:12:48;54499.25;;;-145.32;100.00
14041;BME280;7095;51.388;6.196;2023-01-28T06:15:42;54453.50;;;-145.32;100.00
14041;BME280;7095;51.388;6.196;2023-01-28T06:18:23;54439.59;;;-145.32;100.00
14041;BME280;7095;51.388;6.196;2023-01-28T06:20:52;54477.38;;;-145.32;100.00
14041;BME280;7095;51.388;6.196;2023-01-28T06:23:22;54447.53;;;-145.32;100.00
14041;BME280;7095;51.388;6.196;2023-01-28T06:25:52;54463.44;;;-145.32;100.00
14041;BME280;7095;51.388;6.196;2023-01-28T06:28:22;54443.56;;;-145.32;100.00
14041;BME280;7095;51.388;6.196;2023-01-28T06:30:54;54453.50;;;-145.32;100.00
14041;BME280;7095;51.388;6.196;2023-01-28T06:33:23;54461.47;;;-145.32;100.00
14041;BME280;7095;51.388;6.196;2023-01-28T06:35:51;54473.41;;;-145.32;100.00
14041;BME280;7095;51.388;6.196;2023-01-28T06:38:20;54433.63;;;-145.32;100.00
14041;BME280;7095;51.388;6.196;2023-01-28T06:40:53;54433.63;;;-145.32;100.00
14041;BME280;7095;51.388;6.196;2023-01-28T06:43:22;54451.53;;;-145.32;100.00
14041;BME280;7095;51.388;6.196;2023-01-28T06:45:54;54461.47;;;-145.32;100.00
14041;BME280;7095;51.388;6.196;2023-01-28T06:48:23;54465.44;;;-145.32;100.00
14041;BME280;7095;51.388;6.196;2023-01-28T06:50:51;54449.53;;;-145.32;100.00
14041;BME280;7095;51.388;6.196;2023-01-28T06:53:20;54455.50;;;-145.32;100.00
14041;BME280;7095;51.388;6.196;2023-01-28T06:55:49;54471.41;;;-145.32;100.00
14041;BME280;7095;51.388;6.196;2023-01-28T06:58:19;54479.34;;;-145.32;100.00
14041;BME280;7095;51.388;6.196;2023-01-28T07:00:47;54467.44;;;-145.32;100.00
14041;BME280;7095;51.388;6.196;2023-01-28T07:03:15;54433.63;;;-145.32;100.00
14041;BME280;7095;51.388;6.196;2023-01-28T07:05:44;54413.72;;;-145.32;100.00
14041;BME280;7095;51.388;6.196;2023-01-28T07:08:12;54451.53;;;-145.32;100.00
14041;BME280;7095;51.388;6.196;2023-01-28T07:10:41;54441.56;;;-145.32;100.00
14041;BME280;7095;51.388;6.196;2023-01-28T07:13:10;54439.59;;;-145.32;100.00
14041;BME280;7095;51.388;6.196;2023-01-28T07:15:39;54461.47;;;-145.32;100.00
14041;BME280;7095;51.388;6.196;2023-01-28T07:18:08;54453.50;;;-145.32;100.00
14041;BME280;7095;51.388;6.196;2023-01-28T07:20:37;54481.34;;;-145.32;100.00
14041;BME280;7095;51.388;6.196;2023-01-28T07:23:05;54437.59;;;-145.32;100.00
14041;BME280;7095;51.388;6.196;2023-01-28T07:25:33;54499.25;;;-145.32;100.00
14041;BME280;7095;51.388;6.196;2023-01-28T07:28:02;54421.69;;;-145.32;100.00
14041;BME280;7095;51.388;6.196;2023-01-28T07:30:30;54459.47;;;-145.32;100.00
14041;BME280;7095;51.388;6.196;2023-01-28T07:33:00;54475.38;;;-145.32;100.00
14041;BME280;7095;51.388;6.196;2023-01-28T07:35:29;54469.41;;;-145.32;100.00
14041;BME280;7095;51.388;6.196;2023-01-28T07:37:59;54477.38;;;-145.32;100.00
14041;BME280;7095;51.388;6.196;2023-01-28T07:40:28;54437.59;;;-145.32;100.00
14041;BME280;7095;51.388;6.196;2023-01-28T07:42:56;54461.47;;;-145.32;100.00
14041;BME280;7095;51.388;6.196;2023-01-28T07:45:26;54439.59;;;-145.32;100.00
14041;BME280;7095;51.388;6.196;2023-01-28T07:47:58;54455.50;;;-145.32;100.00
14041;BME280;7095;51.388;6.196;2023-01-28T07:50:29;54491.28;;;-145.32;100.00
14041;BME280;7095;51.388;6.196;2023-01-28T07:53:01;54493.28;;;-145.32;100.00
14041;BME280;7095;51.388;6.196;2023-01-28T07:55:29;54435.59;;;-145.32;100.00
14041;BME280;7095;51.388;6.196;2023-01-28T07:57:58;54455.50;;;-145.32;100.00
14041;BME280;7095;51.388;6.196;2023-01-28T08:00:29;54447.53;;;-145.32;100.00
14041;BME280;7095;51.388;6.196;2023-01-28T08:02:58;54425.66;;;-145.32;100.00
14041;BME280;7095;51.388;6.196;2023-01-28T08:05:36;54455.50;;;-145.32;100.00
14041;BME280;7095;51.388;6.196;2023-01-28T08:08:07;54457.47;;;-145.32;100.00
14041;BME280;7095;51.388;6.196;2023-01-28T08:10:38;54473.41;;;-145.32;100.00
14041;BME280;7095;51.388;6.196;2023-01-28T08:13:08;54423.69;;;-145.32;100.00
14041;BME280;7095;51.388;6.196;2023-01-28T08:15:37;54457.47;;;-145.32;100.00
14041;BME280;7095;51.388;6.196;2023-01-28T08:18:06;54453.50;;;-145.32;100.00
14041;BME280;7095;51.388;6.196;2023-01-28T08:20:36;54453.50;;;-145.32;100.00
14041;BME280;7095;51.388;6.196;2023-01-28T08:23:06;54451.53;;;-145.32;100.00
14041;BME280;7095;51.388;6.196;2023-01-28T08:25:34;54429.66;;;-145.32;100.00
14041;BME280;7095;51.388;6.196;2023-01-28T08:28:04;54417.72;;;-145.32;100.00
14041;BME280;7095;51.388;6.196;2023-01-28T08:30:33;54459.47;;;-145.32;100.00
14041;BME280;7095;51.388;6.196;2023-01-28T08:33:05;54475.38;;;-145.32;100.00
14041;BME280;7095;51.388;6.196;2023-01-28T08:35:38;54451.53;;;-145.32;100.00
14041;BME280;7095;51.388;6.196;2023-01-28T08:38:07;54459.47;;;-145.32;100.00
14041;BME280;7095;51.388;6.196;2023-01-28T08:40:36;54445.56;;;-145.32;100.00
14041;BME280;7095;51.388;6.196;2023-01-28T08:43:05;54401.81;;;-145.32;100.00
14041;BME280;7095;51.388;6.196;2023-01-28T08:45:34;54397.81;;;-145.32;100.00
14041;BME280;7095;51.388;6.196;2023-01-28T08:48:04;54457.47;;;-145.32;100.00
14041;BME280;7095;51.388;6.196;2023-01-28T08:50:35;54377.94;;;-145.32;100.00
14041;BME280;7095;51.388;6.196;2023-01-28T08:53:07;54433.63;;;-145.32;100.00
14041;BME280;7095;51.388;6.196;2023-01-28T08:55:37;54397.81;;;-145.32;100.00
14041;BME280;7095;51.388;6.196;2023-01-28T08:58:08;54429.66;;;-145.32;100.00
14041;BME280;7095;51.388;6.196;2023-01-28T09:00:38;54427.66;;;-145.32;100.00
14041;BME280;7095;51.388;6.196;2023-01-28T09:03:07;54405.78;;;-145.32;100.00
14041;BME280;7095;51.388;6.196;2023-01-28T09:05:36;54393.84;;;-145.32;100.00
14041;BME280;7095;51.388;6.196;2023-01-28T09:08:07;54403.78;;;-145.32;100.00
14041;BME280;7095;51.388;6.196;2023-01-28T09:10:35;54387.88;;;-145.32;100.00
14041;BME280;7095;51.388;6.196;2023-01-28T09:13:04;54413.72;;;-145.32;100.00
14041;BME280;7095;51.388;6.196;2023-01-28T09:15:33;54437.59;;;-145.32;100.00
14041;BME280;7095;51.388;6.196;2023-01-28T09:18:03;54393.84;;;-145.32;100.00
14041;BME280;7095;51.388;6.196;2023-01-28T09:20:31;54389.88;;;-145.32;100.00
14041;BME280;7095;51.388;6.196;2023-01-28T09:23:00;54405.78;;;-145.32;100.00
14041;BME280;7095;51.388;6.196;2023-01-28T09:25:30;54405.78;;;-145.32;100.00
14041;BME280;7095;51.388;6.196;2023-01-28T09:27:59;54358.06;;;-145.32;100.00
14041;BME280;7095;51.388;6.196;2023-01-28T09:30:27;54385.91;;;-145.32;100.00
14041;BME280;7095;51.388;6.196;2023-01-28T09:32:56;54369.97;;;-145.32;100.00
14041;BME280;7095;51.388;6.196;2023-01-28T09:35:25;54356.06;;;-145.32;100.00
14041;BME280;7095;51.388;6.196;2023-01-28T09:37:56;54391.84;;;-145.32;100.00
14041;BME280;7095;51.388;6.196;2023-01-28T09:40:32;54379.94;;;-145.32;100.00
14041;BME280;7095;51.388;6.196;2023-01-28T09:43:15;54403.78;;;-145.32;100.00
14041;BME280;7095;51.388;6.196;2023-01-28T09:45:48;54369.97;;;-145.32;100.00
14041;BME280;7095;51.388;6.196;2023-01-28T09:48:19;54393.84;;;-145.32;100.00
14041;BME280;7095;51.388;6.196;2023-01-28T09:50:51;54371.97;;;-145.32;100.00
14041;BME280;7095;51.388;6.196;2023-01-28T09:53:22;54344.13;;;-145.32;100.00
14041;BME280;7095;51.388;6.196;2023-01-28T09:55:55;54362.03;;;-145.32;100.00
14041;BME280;7095;51.388;6.196;2023-01-28T09:58:24;54381.91;;;-145.32;100.00
14041;BME280;7095;51.388;6.196;2023-01-28T10:00:56;54397.81;;;-145.32;100.00
14041;BME280;7095;51.388;6.196;2023-01-28T10:03:39;54356.06;;;-145.32;100.00
14041;BME280;7095;51.388;6.196;2023-01-28T10:06:22;54381.91;;;-145.32;100.00
14041;BME280;7095;51.388;6.196;2023-01-28T10:09:10;54350.09;;;-145.32;100.00
14041;BME280;7095;51.388;6.196;2023-01-28T10:11:51;54320.28;;;-145.32;100.00
14041;BME280;7095;51.388;6.196;2023-01-28T10:14:34;54338.16;;;-145.32;100.00
14041;BME280;7095;51.388;6.196;2023-01-28T10:17:13;54328.22;;;-145.32;100.00
14041;BME280;7095;51.388;6.196;2023-01-28T10:19:47;54340.16;;;-145.32;100.00
14041;BME280;7095;51.388;6.196;2023-01-28T10:22:19;54326.25;;;-145.32;100.00
14041;BME280;7095;51.388;6.196;2023-01-28T10:24:52;54326.25;;;-145.32;100.00
14041;BME280;7095;51.388;6.196;2023-01-28T10:27:30;54292.44;;;-145.32;100.00
14041;BME280;7095;51.388;6.196;2023-01-28T10:29:59;54362.03;;;-145.32;100.00
14041;BME280;7095;51.388;6.196;2023-01-28T10:32:42;54320.28;;;-145.32;100.00
14041;BME280;7095;51.388;6.196;2023-01-28T10:35:13;54358.06;;;-145.32;100.00
14041;BME280;7095;51.388;6.196;2023-01-28T10:37:41;54360.03;;;-145.32;100.00
14041;BME280;7095;51.388;6.196;2023-01-28T10:40:13;54324.25;;;-145.32;100.00
14041;BME280;7095;51.388;6.196;2023-01-28T10:42:44;54342.16;;;-145.32;100.00
14041;BME280;7095;51.388;6.196;2023-01-28T10:45:16;54336.19;;;-145.32;100.00
14041;BME280;7095;51.388;6.196;2023-01-28T10:47:49;54342.16;;;-145.32;100.00
14041;BME280;7095;51.388;6.196;2023-01-28T10:50:26;54318.28;;;-145.32;100.00
14041;BME280;7095;51.388;6.196;2023-01-28T10:52:55;54314.31;;;-145.32;100.00
14041;BME280;7095;51.388;6.196;2023-01-28T10:55:26;54290.44;;;-145.32;100.00
14041;BME280;7095;51.388;6.196;2023-01-28T10:57:58;54302.38;;;-145.32;100.00
14041;BME280;7095;51.388;6.196;2023-01-28T11:00:29;54286.47;;;-145.32;100.00
14041;BME280;7095;51.388;6.196;2023-01-28T11:02:59;54296.41;;;-145.32;100.00
14041;BME280;7095;51.388;6.196;2023-01-28T11:05:28;54302.38;;;-145.32;100.00
14041;BME280;7095;51.388;6.196;2023-01-28T11:08:09;54286.47;;;-145.32;100.00
14041;BME280;7095;51.388;6.196;2023-01-28T11:10:41;54296.41;;;-145.32;100.00
14041;BME280;7095;51.388;6.196;2023-01-28T11:13:16;54304.38;;;-145.32;100.00
14041;BME280;7095;51.388;6.196;2023-01-28T11:15:50;54304.38;;;-145.32;100.00
14041;BME280;7095;51.388;6.196;2023-01-28T11:18:21;54282.50;;;-145.32;100.00
14041;BME280;7095;51.388;6.196;2023-01-28T11:20:54;54232.78;;;-145.32;100.00
14041;BME280;7095;51.388;6.196;2023-01-28T11:23:27;54286.47;;;-145.32;100.00
14041;BME280;7095;51.388;6.196;2023-01-28T11:26:04;54262.59;;;-145.32;100.00
14041;BME280;7095;51.388;6.196;2023-01-28T11:28:39;54242.72;;;-145.32;100.00
14041;BME280;7095;51.388;6.196;2023-01-28T11:31:11;54282.50;;;-145.32;100.00
14041;BME280;7095;51.388;6.196;2023-01-28T11:33:44;54270.56;;;-145.32;100.00
14041;BME280;7095;51.388;6.196;2023-01-28T11:36:15;54290.44;;;-145.32;100.00
14041;BME280;7095;51.388;6.196;2023-01-28T11:38:49;54288.44;;;-145.32;100.00
14041;BME280;7095;51.388;6.196;2023-01-28T11:41:25;54282.50;;;-145.32;100.00
14041;BME280;7095;51.388;6.196;2023-01-28T11:43:57;54308.34;;;-145.32;100.00
14041;BME280;7095;51.388;6.196;2023-01-28T11:46:51;54286.47;;;-145.32;100.00
14041;BME280;7095;51.388;6.196;2023-01-28T11:49:33;54294.41;;;-145.32;100.00
14041;BME280;7095;51.388;6.196;2023-01-28T11:52:09;54274.53;;;-145.32;100.00
14041;BME280;7095;51.388;6.196;2023-01-28T11:54:50;54266.59;;;-145.32;100.00
14041;BME280;7095;51.388;6.196;2023-01-28T11:57:23;54246.69;;;-145.32;100.00
14041;BME280;7095;51.388;6.196;2023-01-28T12:00:01;54230.78;;;-145.32;100.00
14041;BME280;7095;51.388;6.196;2023-01-28T12:02:49;54282.50;;;-145.32;100.00
14041;BME280;7095;51.388;6.196;2023-01-28T12:05:36;54258.63;;;-145.32;100.00
14041;BME280;7095;51.388;6.196;2023-01-28T12:08:20;54262.59;;;-145.32;100.00
14041;BME280;7095;51.388;6.196;2023-01-28T12:11:09;54248.69;;;-145.32;100.00
14041;BME280;7095;51.388;6.196;2023-01-28T12:13:57;54258.63;;;-145.32;100.00
14041;BME280;7095;51.388;6.196;2023-01-28T12:16:43;54246.69;;;-145.32;100.00
14041;BME280;7095;51.388;6.196;2023-01-28T12:19:24;54250.69;;;-145.32;100.00
14041;BME280;7095;51.388;6.196;2023-01-28T12:22:17;54230.78;;;-145.32;100.00
14041;BME280;7095;51.388;6.196;2023-01-28T12:25:04;54232.78;;;-145.32;100.00
14041;BME280;7095;51.388;6.196;2023-01-28T12:27:45;54266.59;;;-145.32;100.00
14041;BME280;7095;51.388;6.196;2023-01-28T12:30:28;54238.75;;;-145.32;100.00
14041;BME280;7095;51.388;6.196;2023-01-28T12:33:28;54258.63;;;-145.32;100.00
14041;BME280;7095;51.388;6.196;2023-01-28T12:36:04;54254.66;;;-145.32;100.00
14041;BME280;7095;51.388;6.196;2023-01-28T12:38:45;54260.63;;;-145.32;100.00
14041;BME280;7095;51.388;6.196;2023-01-28T12:41:19;54230.78;;;-145.32;100.00
14041;BME280;7095;51.388;6.196;2023-01-28T12:43:55;54282.50;;;-145.32;100.00
14041;BME280;7095;51.388;6.196;2023-01-28T12:46:36;54183.06;;;-145.32;100.00
14041;BME280;7095;51.388;6.196;2023-01-28T12:49:13;54230.78;;;-145.32;100.00
14041;BME280;7095;51.388;6.196;2023-01-28T12:51:51;54187.03;;;-145.32;100.00
14041;BME280;7095;51.388;6.196;2023-01-28T12:54:26;54210.91;;;-145.32;100.00
14041;BME280;7095;51.388;6.196;2023-01-28T12:56:57;54218.84;;;-145.32;100.00
14041;BME280;7095;51.388;6.196;2023-01-28T12:59:29;54210.91;;;-145.32;100.00
14041;BME280;7095;51.388;6.196;2023-01-28T13:02:16;54226.81;;;-145.32;100.00
14041;BME280;7095;51.388;6.196;2023-01-28T13:04:59;54254.66;;;-145.32;100.00
14041;BME280;7095;51.388;6.196;2023-01-28T13:07:35;54212.88;;;-145.32;100.00
14041;BME280;7095;51.388;6.196;2023-01-28T13:10:12;54193.00;;;-145.32;100.00
14041;BME280;7095;51.388;6.196;2023-01-28T13:12:45;54222.84;;;-145.32;100.00
14041;BME280;7095;51.388;6.196;2023-01-28T13:15:16;54171.13;;;-145.32;100.00
14041;BME280;7095;51.388;6.196;2023-01-28T13:17:56;54171.13;;;-145.32;100.00